Time;durP1;ratioP1;P1;durP2;ratioP2;P2;SDS_P1;SDS_P2;PMS_P1;PMS_P2;Temp;Humidity;BMP_temperature;BMP_pressure;BME280_temperature;BME280_humidity;BME280_pressure;Samples;Min_cycle;Max_cycle;Signal;HPM_P1;HPM_P2
2023/12/13 00:00:09;;;;;;;4.63;2.50;;;;;;;;;;5043020;28;20453;-78
2023/12/13 00:03:01;;;;;;;3.20;2.83;;;;;;;;;;5034932;28;20814;-78
2023/12/13 00:05:46;;;;;;;7.10;3.43;;;;;;;;;;5033580;28;20795;-78
2023/12/13 00:08:32;;;;;;;6.60;5.20;;;;;;;;;;5033633;28;20637;-79
2023/12/13 00:11:17;;;;;;;7.93;5.50;;;;;;;;;;5040432;28;20795;-78
2023/12/13 00:14:02;;;;;;;6.70;4.07;;;;;;;;;;5050008;28;20515;-78
2023/12/13 00:16:50;;;;;;;3.20;2.43;;;;;;;;;;5040254;28;20816;-78
2023/12/13 00:19:35;;;;;;;3.60;2.17;;;;;;;;;;5052217;28;20795;-78
2023/12/13 00:22:20;;;;;;;7.00;1.80;;;;;;;;;;5051796;28;21090;-79
2023/12/13 00:25:07;;;;;;;2.97;1.83;;;;;;;;;;5051089;28;20761;-79
2023/12/13 00:27:52;;;;;;;5.03;1.80;;;;;;;;;;5056551;28;20768;-79
2023/12/13 00:30:38;;;;;;;2.47;1.73;;;;;;;;;;5057877;28;20430;-79
2023/12/13 00:33:24;;;;;;;5.37;1.90;;;;;;;;;;5044544;28;20968;-79
2023/12/13 00:36:10;;;;;;;2.80;1.20;;;;;;;;;;5039910;28;20516;-79
2023/12/13 00:38:57;;;;;;;3.00;1.23;;;;;;;;;;5039191;28;20796;-79
2023/12/13 00:41:42;;;;;;;6.27;1.20;;;;;;;;;;5039899;28;20511;-79
2023/12/13 00:44:28;;;;;;;2.27;1.10;;;;;;;;;;5039725;28;20774;-79
2023/12/13 00:47:13;;;;;;;2.60;1.50;;;;;;;;;;5056980;28;20431;-79
2023/12/13 00:49:59;;;;;;;3.17;1.47;;;;;;;;;;5058165;28;20824;-79
2023/12/13 00:52:45;;;;;;;1.70;1.40;;;;;;;;;;5050183;28;20472;-79
2023/12/13 00:55:30;;;;;;;2.33;1.47;;;;;;;;;;5025386;28;20793;-79
2023/12/13 00:58:15;;;;;;;1.90;1.70;;;;;;;;;;5025175;28;20762;-79
2023/12/13 01:01:10;;;;;;;3.77;2.00;;;;;;;;;;5039365;28;20844;-79
2023/12/13 01:03:56;;;;;;;2.90;2.07;;;;;;;;;;5043040;28;20864;-79
2023/12/13 01:06:42;;;;;;;3.00;1.80;;;;;;;;;;5057363;28;20410;-79
2023/12/13 01:09:28;;;;;;;4.73;2.20;;;;;;;;;;5039248;28;20440;-79
2023/12/13 01:12:13;;;;;;;2.90;2.07;;;;;;;;;;5039816;28;20964;-80
2023/12/13 01:14:58;;;;;;;3.57;2.03;;;;;;;;;;5039989;28;20777;-80
2023/12/13 01:17:44;;;;;;;3.60;2.00;;;;;;;;;;5039730;28;20450;-79
2023/12/13 01:20:29;;;;;;;2.20;1.60;;;;;;;;;;5047915;28;20824;-80
2023/12/13 01:23:16;;;;;;;4.33;2.13;;;;;;;;;;5038824;28;20486;-79
2023/12/13 01:26:01;;;;;;;1.97;1.87;;;;;;;;;;5038770;28;20422;-79
2023/12/13 01:28:46;;;;;;;5.67;1.90;;;;;;;;;;5038858;28;20437;-80
2023/12/13 01:31:32;;;;;;;3.63;1.70;;;;;;;;;;5038279;28;20974;-80
2023/12/13 01:34:17;;;;;;;2.47;2.00;;;;;;;;;;5040263;28;20437;-80
2023/12/13 01:37:02;;;;;;;3.13;2.27;;;;;;;;;;5038888;28;20466;-78
2023/12/13 01:39:49;;;;;;;4.60;2.03;;;;;;;;;;5052053;28;20798;-79
2023/12/13 01:42:37;;;;;;;2.63;2.23;;;;;;;;;;5036079;28;20457;-80
2023/12/13 01:45:22;;;;;;;4.17;2.20;;;;;;;;;;5058048;28;20429;-80
2023/12/13 01:48:07;;;;;;;2.83;1.90;;;;;;;;;;5057274;28;20799;-79
2023/12/13 01:50:54;;;;;;;2.60;1.90;;;;;;;;;;5037146;28;20829;-79
2023/12/13 01:53:40;;;;;;;2.53;1.67;;;;;;;;;;5049880;28;20717;-79
2023/12/13 01:56:26;;;;;;;1.70;1.57;;;;;;;;;;5041354;28;21011;-79
2023/12/13 01:59:12;;;;;;;2.40;2.00;;;;;;;;;;5037679;28;20453;-78
2023/12/13 02:01:58;;;;;;;5.00;1.90;;;;;;;;;;5045899;28;20831;-79
2023/12/13 02:04:43;;;;;;;2.80;2.03;;;;;;;;;;5038601;28;20817;-79
2023/12/13 02:07:28;;;;;;;3.50;2.00;;;;;;;;;;5041592;28;20423;-79
2023/12/13 02:10:14;;;;;;;3.50;2.27;;;;;;;;;;5052611;28;20443;-79
2023/12/13 02:13:00;;;;;;;4.13;2.03;;;;;;;;;;5056796;28;20840;-80
2023/12/13 02:15:46;;;;;;;2.60;2.40;;;;;;;;;;5056142;28;20931;-79
2023/12/13 02:18:31;;;;;;;3.70;2.30;;;;;;;;;;5057017;28;20498;-80
2023/12/13 02:21:17;;;;;;;6.20;2.23;;;;;;;;;;5057637;28;20457;-80
2023/12/13 02:24:04;;;;;;;7.60;2.40;;;;;;;;;;5056770;28;20465;-80
2023/12/13 02:26:50;;;;;;;2.77;2.50;;;;;;;;;;5056891;28;20788;-79
2023/12/13 02:29:35;;;;;;;8.43;2.20;;;;;;;;;;5043729;28;20836;-79
2023/12/13 02:32:20;;;;;;;4.00;2.30;;;;;;;;;;5037190;28;20875;-80
2023/12/13 02:35:06;;;;;;;4.10;2.57;;;;;;;;;;5041549;28;20849;-80
2023/12/13 02:37:52;;;;;;;5.63;3.50;;;;;;;;;;5036573;28;20873;-80
2023/12/13 02:40:38;;;;;;;5.57;3.00;;;;;;;;;;5056275;28;20436;-79
2023/12/13 02:43:23;;;;;;;7.43;2.47;;;;;;;;;;5046970;28;20449;-79
2023/12/13 02:46:08;;;;;;;6.63;2.30;;;;;;;;;;5047683;28;20863;-80
2023/12/13 02:48:53;;;;;;;4.93;2.30;;;;;;;;;;5045146;28;20883;-79
2023/12/13 02:51:39;;;;;;;3.27;2.13;;;;;;;;;;5022366;28;20447;-80
2023/12/13 02:54:24;;;;;;;6.10;2.40;;;;;;;;;;5035536;28;20501;-79
2023/12/13 02:57:11;;;;;;;3.40;2.30;;;;;;;;;;5037223;28;20461;-80
2023/12/13 02:59:56;;;;;;;2.17;1.97;;;;;;;;;;5033863;28;20421;-79
2023/12/13 03:02:41;;;;;;;5.50;2.07;;;;;;;;;;5034477;28;20839;-79
2023/12/13 03:05:26;;;;;;;3.37;2.00;;;;;;;;;;5041275;28;20495;-79
2023/12/13 03:08:15;;;;;;;3.00;1.90;;;;;;;;;;5039591;28;20826;-80
2023/12/13 03:11:00;;;;;;;3.73;1.93;;;;;;;;;;5037395;28;20438;-79
2023/12/13 03:13:47;;;;;;;7.00;1.80;;;;;;;;;;5022024;28;20454;-80
2023/12/13 03:16:32;;;;;;;3.53;1.63;;;;;;;;;;5022491;28;20488;-80
2023/12/13 03:19:18;;;;;;;2.93;1.93;;;;;;;;;;5022778;28;20463;-80
2023/12/13 03:22:03;;;;;;;5.13;2.03;;;;;;;;;;5021949;28;20519;-79
2023/12/13 03:24:48;;;;;;;2.80;2.10;;;;;;;;;;5035255;28;20493;-80
2023/12/13 03:27:34;;;;;;;5.40;1.87;;;;;;;;;;5035944;28;20437;-79
2023/12/13 03:30:20;;;;;;;3.77;1.90;;;;;;;;;;5056182;28;20531;-79
2023/12/13 03:33:05;;;;;;;4.43;2.00;;;;;;;;;;5056340;28;20507;-79
2023/12/13 03:35:50;;;;;;;3.03;1.77;;;;;;;;;;5039396;28;20679;-79
2023/12/13 03:38:37;;;;;;;4.80;1.93;;;;;;;;;;5055914;28;20467;-78
2023/12/13 03:41:22;;;;;;;4.23;2.10;;;;;;;;;;5034922;28;20442;-79
2023/12/13 03:44:07;;;;;;;3.67;2.10;;;;;;;;;;5028336;28;20517;-80
2023/12/13 03:46:54;;;;;;;6.20;2.23;;;;;;;;;;5036874;28;20431;-78
2023/12/13 03:49:39;;;;;;;5.60;2.10;;;;;;;;;;5036404;28;20521;-79
2023/12/13 03:52:24;;;;;;;4.17;2.03;;;;;;;;;;5021740;28;20453;-79
2023/12/13 03:55:09;;;;;;;3.50;2.10;;;;;;;;;;5049613;28;20432;-79
2023/12/13 03:57:54;;;;;;;4.53;2.50;;;;;;;;;;5035272;28;20465;-79
2023/12/13 04:00:40;;;;;;;4.27;2.23;;;;;;;;;;5053748;28;20421;-79
2023/12/13 04:03:26;;;;;;;4.83;2.10;;;;;;;;;;5036218;28;20466;-79
2023/12/13 04:06:11;;;;;;;5.53;2.23;;;;;;;;;;5054963;28;20484;-79
2023/12/13 04:08:57;;;;;;;4.60;2.17;;;;;;;;;;5035985;28;20435;-80
2023/12/13 04:11:41;;;;;;;5.73;2.27;;;;;;;;;;5034396;28;20422;-79
2023/12/13 04:14:27;;;;;;;3.00;2.00;;;;;;;;;;5048347;28;20842;-80
2023/12/13 04:17:12;;;;;;;4.50;1.97;;;;;;;;;;5055409;28;20463;-80
2023/12/13 04:19:59;;;;;;;4.37;2.47;;;;;;;;;;5038537;28;20753;-80
2023/12/13 04:22:44;;;;;;;7.47;2.40;;;;;;;;;;5021907;28;20528;-80
2023/12/13 04:25:29;;;;;;;4.70;2.17;;;;;;;;;;5035066;28;20430;-79
2023/12/13 04:28:15;;;;;;;4.73;2.30;;;;;;;;;;5027629;28;20457;-80
2023/12/13 04:31:00;;;;;;;4.57;2.43;;;;;;;;;;5038493;28;20422;-79
2023/12/13 04:33:45;;;;;;;4.60;2.70;;;;;;;;;;5052527;28;20452;-79
2023/12/13 04:36:31;;;;;;;3.33;2.20;;;;;;;;;;5029068;28;20462;-80
2023/12/13 04:39:16;;;;;;;4.80;2.30;;;;;;;;;;5054057;28;20434;-80
2023/12/13 04:42:03;;;;;;;4.60;2.50;;;;;;;;;;5037018;28;20836;-80
2023/12/13 04:44:49;;;;;;;3.97;2.27;;;;;;;;;;5052130;28;20429;-80
2023/12/13 04:47:34;;;;;;;6.37;2.60;;;;;;;;;;5037814;28;20797;-79
2023/12/13 04:50:20;;;;;;;4.27;2.20;;;;;;;;;;5046800;28;20487;-80
2023/12/13 04:53:06;;;;;;;4.17;2.33;;;;;;;;;;5032761;28;20454;-80
2023/12/13 04:55:52;;;;;;;5.70;2.00;;;;;;;;;;5038693;28;20871;-79
2023/12/13 04:58:37;;;;;;;3.77;2.00;;;;;;;;;;5049299;28;20805;-79
2023/12/13 05:01:22;;;;;;;4.10;2.07;;;;;;;;;;5045993;28;20807;-79
2023/12/13 05:04:08;;;;;;;3.90;2.13;;;;;;;;;;5050458;28;20839;-79
2023/12/13 05:06:53;;;;;;;5.97;2.30;;;;;;;;;;5052378;28;20839;-79
2023/12/13 05:09:40;;;;;;;3.83;1.90;;;;;;;;;;5051021;28;20795;-78
2023/12/13 05:12:25;;;;;;;5.40;2.07;;;;;;;;;;5051688;28;20873;-80
2023/12/13 05:15:10;;;;;;;6.97;2.40;;;;;;;;;;5052026;28;20902;-79
2023/12/13 05:17:55;;;;;;;4.23;2.10;;;;;;;;;;5032666;28;20461;-79
2023/12/13 05:20:40;;;;;;;2.93;2.63;;;;;;;;;;5032672;28;20774;-79
2023/12/13 05:23:26;;;;;;;4.80;2.30;;;;;;;;;;5042026;28;20863;-79
2023/12/13 05:26:12;;;;;;;6.30;2.50;;;;;;;;;;5051327;28;20930;-79
2023/12/13 05:28:58;;;;;;;7.97;2.33;;;;;;;;;;5030904;28;20904;-79
2023/12/13 05:31:43;;;;;;;3.47;2.00;;;;;;;;;;5042206;28;20823;-80
2023/12/13 05:34:28;;;;;;;6.00;2.67;;;;;;;;;;5049881;28;20474;-80
2023/12/13 05:37:13;;;;;;;4.63;2.47;;;;;;;;;;5048827;28;20474;-79
2023/12/13 05:39:59;;;;;;;3.07;2.43;;;;;;;;;;5059533;28;20796;-80
2023/12/13 05:42:45;;;;;;;4.83;2.30;;;;;;;;;;5060097;28;20895;-79
2023/12/13 05:45:31;;;;;;;5.90;2.20;;;;;;;;;;5060466;28;20556;-80
2023/12/13 05:48:16;;;;;;;2.33;2.10;;;;;;;;;;5061150;28;20436;-79
2023/12/13 05:51:01;;;;;;;4.10;2.00;;;;;;;;;;5059707;28;20773;-80
2023/12/13 05:53:46;;;;;;;4.97;2.07;;;;;;;;;;5053319;28;20852;-80
2023/12/13 05:56:32;;;;;;;3.70;2.07;;;;;;;;;;5040485;28;20995;-80
2023/12/13 05:59:18;;;;;;;3.00;2.13;;;;;;;;;;5041177;28;20436;-79
2023/12/13 06:02:04;;;;;;;6.30;2.30;;;;;;;;;;5040206;28;20886;-78
2023/12/13 06:04:49;;;;;;;4.00;2.10;;;;;;;;;;5051117;28;20421;-81
2023/12/13 06:07:35;;;;;;;5.30;2.37;;;;;;;;;;5059413;28;20855;-81
2023/12/13 06:10:20;;;;;;;7.43;2.33;;;;;;;;;;5057829;28;20432;-80
2023/12/13 06:13:05;;;;;;;6.20;1.80;;;;;;;;;;5058577;28;20815;-80
2023/12/13 06:15:52;;;;;;;11.00;3.37;;;;;;;;;;5058607;28;21034;-81
2023/12/13 06:18:38;;;;;;;4.40;1.90;;;;;;;;;;5057447;28;20808;-81
2023/12/13 06:21:23;;;;;;;5.00;1.90;;;;;;;;;;5057189;28;20422;-79
2023/12/13 06:24:08;;;;;;;3.00;2.20;;;;;;;;;;5058009;28;20425;-80
2023/12/13 06:26:53;;;;;;;6.47;2.43;;;;;;;;;;5057266;28;20593;-80
2023/12/13 06:29:39;;;;;;;3.83;1.77;;;;;;;;;;5060461;28;20425;-80
2023/12/13 06:32:25;;;;;;;7.30;2.27;;;;;;;;;;5061514;28;20842;-80
2023/12/13 06:35:12;;;;;;;3.03;1.63;;;;;;;;;;5061519;28;20791;-80
2023/12/13 06:37:58;;;;;;;3.90;1.70;;;;;;;;;;5046486;28;20522;-81
2023/12/13 06:40:44;;;;;;;3.53;1.90;;;;;;;;;;5061483;28;20820;-81
2023/12/13 06:43:29;;;;;;;6.03;2.10;;;;;;;;;;5061842;28;20797;-80
2023/12/13 06:46:14;;;;;;;3.87;1.87;;;;;;;;;;5061603;28;20426;-80
2023/12/13 06:49:01;;;;;;;6.60;2.60;;;;;;;;;;5061277;28;20434;-80
2023/12/13 06:51:46;;;;;;;4.90;1.80;;;;;;;;;;5061678;28;20922;-80
2023/12/13 06:54:31;;;;;;;3.23;1.53;;;;;;;;;;5060506;28;20790;-80
2023/12/13 06:57:17;;;;;;;3.97;2.30;;;;;;;;;;5061460;28;21005;-80
2023/12/13 07:00:03;;;;;;;4.10;2.10;;;;;;;;;;5045392;28;20845;-80
2023/12/13 07:02:49;;;;;;;2.90;2.10;;;;;;;;;;5060821;28;20815;-80
2023/12/13 07:05:36;;;;;;;5.47;2.50;;;;;;;;;;5060882;28;20429;-80
2023/12/13 07:08:21;;;;;;;8.13;2.90;;;;;;;;;;5060792;28;20799;-81
2023/12/13 07:11:06;;;;;;;4.87;2.10;;;;;;;;;;5060184;28;20479;-80
2023/12/13 07:13:52;;;;;;;6.33;2.33;;;;;;;;;;5062775;28;20840;-79
2023/12/13 07:16:37;;;;;;;5.13;3.70;;;;;;;;;;5063043;28;20806;-80
2023/12/13 07:19:22;;;;;;;7.07;2.20;;;;;;;;;;5059696;28;20421;-79
2023/12/13 07:22:09;;;;;;;2.83;2.10;;;;;;;;;;5063536;28;20464;-79
2023/12/13 07:24:54;;;;;;;3.87;2.13;;;;;;;;;;5056333;28;20437;-79
2023/12/13 07:27:39;;;;;;;3.57;2.47;;;;;;;;;;5056282;28;20843;-79
2023/12/13 07:30:25;;;;;;;7.00;2.67;;;;;;;;;;5056253;28;20863;-79
2023/12/13 07:33:10;;;;;;;3.70;2.17;;;;;;;;;;5056207;28;20869;-79
2023/12/13 07:35:55;;;;;;;5.87;2.70;;;;;;;;;;5055800;28;20815;-79
2023/12/13 07:38:42;;;;;;;8.40;2.60;;;;;;;;;;5055437;28;20859;-79
2023/12/13 07:41:27;;;;;;;7.90;2.70;;;;;;;;;;5054842;28;20838;-79
2023/12/13 07:44:12;;;;;;;5.67;2.63;;;;;;;;;;5055196;28;20800;-79
2023/12/13 07:46:57;;;;;;;3.93;2.30;;;;;;;;;;5054910;28;20792;-79
2023/12/13 07:49:43;;;;;;;4.77;2.60;;;;;;;;;;5055273;28;20867;-79
2023/12/13 07:52:28;;;;;;;5.77;2.40;;;;;;;;;;5055680;28;20453;-79
2023/12/13 07:55:18;;;;;;;8.67;2.03;;;;;;;;;;5040396;28;20887;-79
2023/12/13 07:58:03;;;;;;;7.40;2.90;;;;;;;;;;5039940;28;20802;-79
2023/12/13 08:00:49;;;;;;;7.43;2.50;;;;;;;;;;5055032;28;20414;-79
2023/12/13 08:03:34;;;;;;;5.17;2.30;;;;;;;;;;5055263;28;20854;-79
2023/12/13 08:06:20;;;;;;;7.83;2.10;;;;;;;;;;5055327;28;20774;-79
2023/12/13 08:09:09;;;;;;;6.43;1.97;;;;;;;;;;5054827;28;20763;-79
2023/12/13 08:11:55;;;;;;;5.30;2.37;;;;;;;;;;5056063;28;20838;-79
2023/12/13 08:14:41;;;;;;;5.60;2.27;;;;;;;;;;5056876;28;20838;-79
2023/12/13 08:17:26;;;;;;;5.03;3.20;;;;;;;;;;5041210;28;20461;-79
2023/12/13 08:20:12;;;;;;;5.00;2.53;;;;;;;;;;5055858;28;20787;-79
2023/12/13 08:22:57;;;;;;;5.07;2.50;;;;;;;;;;5056720;28;20466;-79
2023/12/13 08:25:42;;;;;;;3.50;2.00;;;;;;;;;;5041126;28;20430;-79
2023/12/13 08:28:29;;;;;;;6.03;2.30;;;;;;;;;;5056941;28;20437;-79
2023/12/13 08:31:14;;;;;;;4.47;2.30;;;;;;;;;;5041344;28;20432;-79
2023/12/13 08:34:00;;;;;;;6.20;2.27;;;;;;;;;;5056260;28;20811;-79
2023/12/13 08:36:46;;;;;;;7.17;2.60;;;;;;;;;;5055874;28;20886;-79
2023/12/13 08:39:32;;;;;;;9.00;2.53;;;;;;;;;;5055920;28;20798;-80
2023/12/13 08:42:19;;;;;;;8.40;4.33;;;;;;;;;;5055816;28;20818;-79
2023/12/13 08:45:06;;;;;;;8.90;4.70;;;;;;;;;;5056595;28;20798;-78
2023/12/13 08:47:51;;;;;;;11.40;5.80;;;;;;;;;;5055701;28;20490;-79
2023/12/13 08:50:36;;;;;;;8.43;4.10;;;;;;;;;;5055802;28;20872;-80
2023/12/13 08:53:22;;;;;;;7.13;3.40;;;;;;;;;;5055546;28;20836;-79
2023/12/13 08:56:09;;;;;;;7.03;3.57;;;;;;;;;;5055148;28;20849;-79
2023/12/13 08:58:54;;;;;;;3.30;2.93;;;;;;;;;;5055061;28;21003;-79
2023/12/13 09:01:41;;;;;;;8.30;5.73;;;;;;;;;;5055802;28;20426;-78
2023/12/13 09:04:26;;;;;;;10.87;3.43;;;;;;;;;;5055672;28;20797;-79
2023/12/13 09:07:11;;;;;;;5.83;3.13;;;;;;;;;;5054596;28;20754;-79
2023/12/13 09:09:57;;;;;;;5.20;2.40;;;;;;;;;;5054296;28;20426;-79
2023/12/13 09:12:42;;;;;;;4.60;2.60;;;;;;;;;;5054899;28;20815;-79
2023/12/13 09:15:27;;;;;;;12.50;2.40;;;;;;;;;;5054940;28;20796;-80
2023/12/13 09:18:14;;;;;;;3.70;2.00;;;;;;;;;;5054761;28;20824;-79
2023/12/13 09:21:00;;;;;;;5.47;2.23;;;;;;;;;;5054622;28;20820;-79
2023/12/13 09:23:46;;;;;;;6.93;2.23;;;;;;;;;;5054222;28;20480;-79
2023/12/13 09:26:32;;;;;;;7.70;2.40;;;;;;;;;;5054377;28;20903;-79
2023/12/13 09:29:17;;;;;;;5.60;2.10;;;;;;;;;;5038948;28;20904;-79
2023/12/13 09:32:02;;;;;;;6.70;2.53;;;;;;;;;;5053597;28;21065;-78
2023/12/13 09:34:49;;;;;;;3.10;1.63;;;;;;;;;;5054075;28;20829;-79
2023/12/13 09:37:34;;;;;;;4.90;2.10;;;;;;;;;;5053910;28;20453;-79
2023/12/13 09:40:19;;;;;;;3.70;2.50;;;;;;;;;;5053682;28;20795;-79
2023/12/13 09:43:05;;;;;;;3.97;2.80;;;;;;;;;;5055947;28;20453;-80
2023/12/13 09:45:51;;;;;;;5.20;4.07;;;;;;;;;;5056475;28;20801;-80
2023/12/13 09:48:37;;;;;;;8.67;6.53;;;;;;;;;;5056294;28;21013;-79
2023/12/13 09:51:24;;;;;;;7.53;2.67;;;;;;;;;;5041652;28;20791;-80
2023/12/13 09:54:09;;;;;;;7.57;3.90;;;;;;;;;;5056062;28;20488;-80
2023/12/13 09:56:54;;;;;;;8.80;2.70;;;;;;;;;;5056885;28;20852;-79
2023/12/13 09:59:40;;;;;;;6.20;2.80;;;;;;;;;;5056050;28;20886;-80
2023/12/13 10:02:26;;;;;;;6.27;2.60;;;;;;;;;;5055924;28;20890;-79
2023/12/13 10:05:12;;;;;;;5.23;2.63;;;;;;;;;;5060355;28;20847;-80
2023/12/13 10:08:00;;;;;;;6.03;2.70;;;;;;;;;;5060182;28;20908;-79
2023/12/13 10:10:47;;;;;;;5.87;2.57;;;;;;;;;;5059385;28;20921;-79
2023/12/13 10:13:34;;;;;;;6.33;3.10;;;;;;;;;;5060147;28;20803;-79
2023/12/13 10:16:20;;;;;;;5.70;2.70;;;;;;;;;;5060205;28;20985;-79
2023/12/13 10:19:05;;;;;;;5.73;2.90;;;;;;;;;;5044462;28;20479;-79
2023/12/13 10:21:50;;;;;;;7.63;3.13;;;;;;;;;;5060522;28;20991;-79
2023/12/13 10:24:37;;;;;;;6.57;2.97;;;;;;;;;;5060886;28;20480;-79
2023/12/13 10:27:22;;;;;;;8.50;3.43;;;;;;;;;;5060322;28;20903;-79
2023/12/13 10:30:10;;;;;;;8.07;3.37;;;;;;;;;;5059815;28;20795;-80
2023/12/13 10:32:55;;;;;;;3.87;3.07;;;;;;;;;;5059636;28;20816;-79
2023/12/13 10:35:41;;;;;;;6.20;3.10;;;;;;;;;;5059348;28;20437;-78
2023/12/13 10:38:26;;;;;;;6.03;3.30;;;;;;;;;;5059229;28;20465;-79
2023/12/13 10:41:15;;;;;;;8.07;3.50;;;;;;;;;;5059705;28;20786;-79
2023/12/13 10:44:02;;;;;;;6.10;3.20;;;;;;;;;;5060345;28;20477;-79
2023/12/13 10:46:49;;;;;;;4.63;2.97;;;;;;;;;;5059853;28;20791;-80
2023/12/13 10:49:34;;;;;;;8.20;3.20;;;;;;;;;;5059531;28;20787;-80
2023/12/13 10:52:20;;;;;;;5.13;3.10;;;;;;;;;;5059510;28;20872;-79
2023/12/13 10:55:06;;;;;;;3.73;3.13;;;;;;;;;;5059277;28;20876;-80
2023/12/13 10:57:52;;;;;;;6.53;2.97;;;;;;;;;;5059951;28;20421;-80
2023/12/13 11:00:38;;;;;;;5.00;3.60;;;;;;;;;;5059925;28;20771;-78
2023/12/13 11:03:29;;;;;;;6.97;3.37;;;;;;;;;;5045107;28;20458;-79
2023/12/13 11:06:16;;;;;;;8.20;3.33;;;;;;;;;;5060089;28;20806;-79
2023/12/13 11:09:08;;;;;;;6.00;3.23;;;;;;;;;;5059311;28;20832;-80
2023/12/13 11:11:56;;;;;;;6.20;3.23;;;;;;;;;;5058999;28;20423;-79
2023/12/13 11:14:47;;;;;;;5.23;3.43;;;;;;;;;;5040167;28;20457;-79
2023/12/13 11:17:37;;;;;;;4.07;3.07;;;;;;;;;;5055966;28;20423;-79
2023/12/13 11:20:22;;;;;;;4.80;3.70;;;;;;;;;;5055912;28;20431;-79
2023/12/13 11:23:08;;;;;;;7.80;3.50;;;;;;;;;;5040760;28;20541;-79
2023/12/13 11:25:55;;;;;;;6.10;3.57;;;;;;;;;;5041482;28;20421;-80
2023/12/13 11:28:40;;;;;;;6.03;3.77;;;;;;;;;;5056505;28;20432;-80
2023/12/13 11:31:27;;;;;;;7.70;3.90;;;;;;;;;;5056663;28;20434;-79
2023/12/13 11:34:12;;;;;;;5.27;3.93;;;;;;;;;;5041874;28;20423;-79
2023/12/13 11:36:57;;;;;;;7.53;5.17;;;;;;;;;;5058783;28;20886;-80
2023/12/13 11:39:45;;;;;;;9.20;4.90;;;;;;;;;;5043767;28;20462;-80
2023/12/13 11:42:31;;;;;;;5.50;4.30;;;;;;;;;;5058684;28;20442;-80
2023/12/13 11:45:18;;;;;;;4.87;3.50;;;;;;;;;;5044014;28;20434;-80
2023/12/13 11:48:05;;;;;;;5.30;3.70;;;;;;;;;;5045028;28;20421;-80
2023/12/13 11:50:51;;;;;;;8.60;3.63;;;;;;;;;;5059866;28;20459;-80
2023/12/13 11:53:36;;;;;;;5.60;3.70;;;;;;;;;;5045708;28;20464;-80
2023/12/13 11:56:22;;;;;;;11.30;3.60;;;;;;;;;;5045317;28;20493;-80
2023/12/13 11:59:07;;;;;;;6.80;4.00;;;;;;;;;;5059752;28;20505;-80
2023/12/13 12:01:52;;;;;;;9.20;4.30;;;;;;;;;;5059790;28;20429;-80
2023/12/13 12:04:39;;;;;;;8.37;4.03;;;;;;;;;;5060089;28;20934;-81
2023/12/13 12:07:24;;;;;;;5.03;3.70;;;;;;;;;;5045253;28;20784;-80
2023/12/13 12:10:10;;;;;;;9.70;4.03;;;;;;;;;;5044823;28;20426;-80
2023/12/13 12:12:55;;;;;;;6.10;3.80;;;;;;;;;;5045237;28;20454;-80
2023/12/13 12:15:42;;;;;;;9.13;4.23;;;;;;;;;;5044924;28;20646;-80
2023/12/13 12:18:28;;;;;;;8.50;3.60;;;;;;;;;;5058596;28;20480;-79
2023/12/13 12:21:14;;;;;;;6.90;3.67;;;;;;;;;;5055894;28;20529;-79
2023/12/13 12:24:00;;;;;;;3.47;3.17;;;;;;;;;;5055100;28;20445;-78
2023/12/13 12:26:47;;;;;;;6.80;4.33;;;;;;;;;;5039912;28;20430;-79
2023/12/13 12:29:32;;;;;;;7.07;3.60;;;;;;;;;;5055461;28;20437;-79
2023/12/13 12:32:18;;;;;;;5.53;3.30;;;;;;;;;;5040098;28;20778;-79
2023/12/13 12:35:02;;;;;;;6.87;3.90;;;;;;;;;;5039914;28;20523;-79
2023/12/13 12:37:49;;;;;;;6.07;3.97;;;;;;;;;;5055248;28;20423;-79
2023/12/13 12:40:34;;;;;;;6.40;3.93;;;;;;;;;;5040210;28;20437;-79
2023/12/13 12:43:20;;;;;;;8.03;4.33;;;;;;;;;;5054824;28;20842;-79
2023/12/13 12:46:06;;;;;;;4.57;3.63;;;;;;;;;;5039519;28;20429;-80
2023/12/13 12:48:51;;;;;;;7.03;3.77;;;;;;;;;;5039419;28;20433;-79
2023/12/13 12:51:36;;;;;;;8.63;4.17;;;;;;;;;;5054640;28;20421;-79
2023/12/13 12:54:23;;;;;;;7.50;4.07;;;;;;;;;;5054545;28;20464;-79
2023/12/13 12:57:08;;;;;;;6.20;3.93;;;;;;;;;;5054851;28;20429;-79
2023/12/13 12:59:53;;;;;;;8.67;4.30;;;;;;;;;;5045095;28;20466;-79
2023/12/13 13:02:39;;;;;;;6.97;4.87;;;;;;;;;;5054544;28;20516;-79
2023/12/13 13:05:24;;;;;;;10.43;3.90;;;;;;;;;;5054961;28;20429;-79
2023/12/13 13:08:09;;;;;;;4.77;3.73;;;;;;;;;;5054684;28;20429;-79
2023/12/13 13:10:56;;;;;;;5.77;3.57;;;;;;;;;;5039021;28;20532;-79
2023/12/13 13:13:41;;;;;;;5.07;3.50;;;;;;;;;;5038801;28;21136;-79
2023/12/13 13:16:27;;;;;;;12.83;4.40;;;;;;;;;;5054411;28;20425;-79
2023/12/13 13:19:13;;;;;;;6.00;3.40;;;;;;;;;;5038940;28;20453;-79
2023/12/13 13:21:58;;;;;;;10.20;6.10;;;;;;;;;;5053938;28;20525;-79
2023/12/13 13:24:43;;;;;;;8.73;5.00;;;;;;;;;;5054189;28;20459;-79
2023/12/13 13:27:30;;;;;;;7.10;4.00;;;;;;;;;;5053666;28;20426;-79
2023/12/13 13:30:16;;;;;;;5.90;4.20;;;;;;;;;;5038656;28;20422;-79
2023/12/13 13:33:01;;;;;;;5.07;3.00;;;;;;;;;;5038873;28;20831;-79
2023/12/13 13:35:47;;;;;;;4.70;3.17;;;;;;;;;;5053966;28;20425;-79
2023/12/13 13:38:32;;;;;;;8.43;3.93;;;;;;;;;;5052436;28;20426;-79
2023/12/13 13:41:18;;;;;;;7.27;4.23;;;;;;;;;;5054320;28;20422;-79
2023/12/13 13:44:05;;;;;;;6.90;3.60;;;;;;;;;;5038597;28;20595;-79
2023/12/13 13:46:50;;;;;;;4.90;3.37;;;;;;;;;;5038914;28;20421;-80
2023/12/13 13:49:36;;;;;;;5.60;3.20;;;;;;;;;;5054153;28;20422;-79
2023/12/13 13:52:21;;;;;;;4.67;3.10;;;;;;;;;;5038579;28;20452;-80
2023/12/13 13:55:06;;;;;;;10.03;3.60;;;;;;;;;;5038683;28;20425;-79
2023/12/13 13:57:51;;;;;;;6.60;3.17;;;;;;;;;;5039096;28;20422;-79
2023/12/13 14:00:39;;;;;;;9.67;3.67;;;;;;;;;;5074650;23;20846;-76
2023/12/13 14:03:24;;;;;;;5.80;3.17;;;;;;;;;;5031844;28;20453;-79
2023/12/13 14:06:10;;;;;;;7.63;4.57;;;;;;;;;;5054081;28;20438;-76
2023/12/13 14:08:56;;;;;;;10.80;3.50;;;;;;;;;;5053766;28;20779;-78
2023/12/13 14:11:41;;;;;;;7.10;3.00;;;;;;;;;;5030269;28;20993;-76
2023/12/13 14:14:27;;;;;;;7.40;3.40;;;;;;;;;;5021149;28;20809;-76
2023/12/13 14:17:15;;;;;;;9.63;3.40;;;;;;;;;;5045333;28;20502;-76
2023/12/13 14:20:00;;;;;;;5.73;2.60;;;;;;;;;;5028439;28;20477;-77
2023/12/13 14:22:46;;;;;;;7.33;3.57;;;;;;;;;;5042041;28;20438;-77
2023/12/13 14:25:31;;;;;;;3.80;3.10;;;;;;;;;;5036163;28;20454;-78
2023/12/13 14:28:17;;;;;;;13.27;9.30;;;;;;;;;;5026729;28;20449;-76
2023/12/13 14:31:03;;;;;;;16.50;10.67;;;;;;;;;;5028053;28;20471;-77
2023/12/13 14:33:51;;;;;;;8.13;5.43;;;;;;;;;;5029440;28;20776;-78
2023/12/13 14:36:36;;;;;;;10.83;3.57;;;;;;;;;;5035578;28;20788;-78
2023/12/13 14:39:23;;;;;;;8.80;3.30;;;;;;;;;;5033721;28;20908;-78
2023/12/13 14:42:09;;;;;;;9.50;3.43;;;;;;;;;;5030812;28;20434;-80
2023/12/13 14:44:54;;;;;;;15.33;3.83;;;;;;;;;;5030988;28;20802;-80
2023/12/13 14:47:39;;;;;;;9.53;4.50;;;;;;;;;;5043483;28;20492;-80
2023/12/13 14:50:26;;;;;;;11.47;5.40;;;;;;;;;;5037835;28;20810;-80
2023/12/13 14:53:11;;;;;;;7.70;4.67;;;;;;;;;;5049452;28;20453;-77
2023/12/13 14:55:57;;;;;;;10.63;6.30;;;;;;;;;;5049711;28;20827;-78
2023/12/13 14:58:42;;;;;;;10.40;6.53;;;;;;;;;;5046549;28;20813;-80
2023/12/13 15:01:27;;;;;;;8.70;5.40;;;;;;;;;;5038841;28;20815;-78
2023/12/13 15:04:13;;;;;;;10.13;5.13;;;;;;;;;;5048892;28;20859;-78
2023/12/13 15:07:00;;;;;;;8.37;5.10;;;;;;;;;;5048890;28;20437;-78
2023/12/13 15:09:46;;;;;;;9.90;5.57;;;;;;;;;;5038669;28;20479;-81
2023/12/13 15:12:32;;;;;;;8.57;4.90;;;;;;;;;;5029921;28;20500;-79
2023/12/13 15:15:18;;;;;;;8.57;4.33;;;;;;;;;;5037723;28;20449;-79
2023/12/13 15:18:04;;;;;;;8.33;4.83;;;;;;;;;;5028586;28;20449;-81
2023/12/13 15:20:49;;;;;;;11.70;4.63;;;;;;;;;;5028341;28;20555;-82
2023/12/13 15:23:36;;;;;;;9.30;4.93;;;;;;;;;;5025421;28;20433;-80
2023/12/13 15:26:21;;;;;;;6.00;4.33;;;;;;;;;;5036151;28;20768;-78
2023/12/13 15:29:06;;;;;;;6.60;5.07;;;;;;;;;;5031999;28;20557;-77
2023/12/13 15:31:52;;;;;;;8.60;5.00;;;;;;;;;;5031204;28;20802;-79
2023/12/13 15:34:37;;;;;;;7.60;4.43;;;;;;;;;;5027991;28;20451;-78
2023/12/13 15:37:22;;;;;;;10.87;5.17;;;;;;;;;;5042060;28;20522;-78
2023/12/13 15:40:10;;;;;;;8.80;6.23;;;;;;;;;;5028806;28;20473;-80
2023/12/13 15:42:56;;;;;;;10.50;5.97;;;;;;;;;;5044809;28;20823;-80
2023/12/13 15:45:41;;;;;;;9.93;4.80;;;;;;;;;;5047565;28;20445;-78
2023/12/13 15:48:27;;;;;;;9.80;6.83;;;;;;;;;;5034163;28;20854;-78
2023/12/13 15:51:12;;;;;;;9.23;6.30;;;;;;;;;;5017142;28;20498;-77
2023/12/13 15:53:57;;;;;;;11.03;7.53;;;;;;;;;;5029296;28;20789;-82
2023/12/13 15:56:44;;;;;;;14.87;10.53;;;;;;;;;;5027455;28;20830;-78
2023/12/13 15:59:29;;;;;;;14.70;8.60;;;;;;;;;;5035958;28;21095;-82
2023/12/13 16:02:15;;;;;;;14.00;10.37;;;;;;;;;;5045639;28;20434;-81
2023/12/13 16:05:00;;;;;;;10.93;7.90;;;;;;;;;;5039487;28;20843;-81
2023/12/13 16:07:45;;;;;;;13.83;6.80;;;;;;;;;;5023797;28;21114;-80
2023/12/13 16:10:30;;;;;;;10.73;6.70;;;;;;;;;;5020056;28;20877;-78
2023/12/13 16:13:17;;;;;;;10.47;9.43;;;;;;;;;;5040086;28;20438;-80
2023/12/13 16:16:02;;;;;;;29.47;26.47;;;;;;;;;;5028146;28;20446;-80
2023/12/13 16:18:47;;;;;;;13.33;7.07;;;;;;;;;;5032548;28;20485;-80
2023/12/13 16:21:32;;;;;;;11.90;9.33;;;;;;;;;;5038058;28;20840;-81
2023/12/13 16:24:17;;;;;;;15.23;7.30;;;;;;;;;;5047765;28;20434;-79
2023/12/13 16:27:03;;;;;;;12.27;6.57;;;;;;;;;;5046221;28;20811;-81
2023/12/13 16:29:49;;;;;;;9.70;6.30;;;;;;;;;;5035790;28;20822;-80